sensor_id;sensor_type;location;lat;lon;timestamp;P1;P2;P0
50321;PMS5003;36227;53.366;-1.426;2023-04-23T00:00:36;71;64;
50321;PMS5003;36227;53.366;-1.426;2023-04-23T00:03:03;61;57;
50321;PMS5003;36227;53.366;-1.426;2023-04-23T00:05:27;62;55;
50321;PMS5003;36227;53.366;-1.426;2023-04-23T00:07:52;65;59;
50321;PMS5003;36227;53.366;-1.426;2023-04-23T00:10:17;67;65;
50321;PMS5003;36227;53.366;-1.426;2023-04-23T00:12:43;69;63;
50321;PMS5003;36227;53.366;-1.426;2023-04-23T00:15:08;72;68;
50321;PMS5003;36227;53.366;-1.426;2023-04-23T00:17:34;59;57;
50321;PMS5003;36227;53.366;-1.426;2023-04-23T00:19:59;69;59;
50321;PMS5003;36227;53.366;-1.426;2023-04-23T00:22:24;61;59;
50321;PMS5003;36227;53.366;-1.426;2023-04-23T00:24:49;75;69;
50321;PMS5003;36227;53.366;-1.426;2023-04-23T00:27:15;66;58;
50321;PMS5003;36227;53.366;-1.426;2023-04-23T00:29:41;63;56;
50321;PMS5003;36227;53.366;-1.426;2023-04-23T00:32:06;65;59;
50321;PMS5003;36227;53.366;-1.426;2023-04-23T00:34:31;62;57;
50321;PMS5003;36227;53.366;-1.426;2023-04-23T00:36:56;65;56;
50321;PMS5003;36227;53.366;-1.426;2023-04-23T00:39:22;61;58;
50321;PMS5003;36227;53.366;-1.426;2023-04-23T00:41:48;65;60;
50321;PMS5003;36227;53.366;-1.426;2023-04-23T00:44:13;62;56;
50321;PMS5003;36227;53.366;-1.426;2023-04-23T00:46:39;70;63;
50321;PMS5003;36227;53.366;-1.426;2023-04-23T00:49:05;68;62;
50321;PMS5003;36227;53.366;-1.426;2023-04-23T00:51:30;69;63;
50321;PMS5003;36227;53.366;-1.426;2023-04-23T00:53:55;68;61;
50321;PMS5003;36227;53.366;-1.426;2023-04-23T00:56:21;70;65;
50321;PMS5003;36227;53.366;-1.426;2023-04-23T00:58:46;74;67;
50321;PMS5003;36227;53.366;-1.426;2023-04-23T01:01:12;73;65;
50321;PMS5003;36227;53.366;-1.426;2023-04-23T01:03:37;66;65;
50321;PMS5003;36227;53.366;-1.426;2023-04-23T01:06:02;71;68;
50321;PMS5003;36227;53.366;-1.426;2023-04-23T01:08:28;77;66;
50321;PMS5003;36227;53.366;-1.426;2023-04-23T01:10:53;73;65;
50321;PMS5003;36227;53.366;-1.426;2023-04-23T01:13:19;70;65;
50321;PMS5003;36227;53.366;-1.426;2023-04-23T01:15:44;72;65;
50321;PMS5003;36227;53.366;-1.426;2023-04-23T01:18:09;70;65;
50321;PMS5003;36227;53.366;-1.426;2023-04-23T01:20:35;77;70;
50321;PMS5003;36227;53.366;-1.426;2023-04-23T01:23:00;77;73;
50321;PMS5003;36227;53.366;-1.426;2023-04-23T01:25:26;72;66;
50321;PMS5003;36227;53.366;-1.426;2023-04-23T01:27:52;75;68;
50321;PMS5003;36227;53.366;-1.426;2023-04-23T01:30:17;69;63;
50321;PMS5003;36227;53.366;-1.426;2023-04-23T01:32:42;70;65;
50321;PMS5003;36227;53.366;-1.426;2023-04-23T01:35:07;70;66;
50321;PMS5003;36227;53.366;-1.426;2023-04-23T01:37:32;79;65;
50321;PMS5003;36227;53.366;-1.426;2023-04-23T01:39:57;72;64;
50321;PMS5003;36227;53.366;-1.426;2023-04-23T01:42:22;72;61;
50321;PMS5003;36227;53.366;-1.426;2023-04-23T01:44:48;68;61;
50321;PMS5003;36227;53.366;-1.426;2023-04-23T01:47:13;77;71;
50321;PMS5003;36227;53.366;-1.426;2023-04-23T01:49:39;62;57;
50321;PMS5003;36227;53.366;-1.426;2023-04-23T01:52:04;54;52;
50321;PMS5003;36227;53.366;-1.426;2023-04-23T01:54:30;71;63;
50321;PMS5003;36227;53.366;-1.426;2023-04-23T01:56:56;67;58;
50321;PMS5003;36227;53.366;-1.426;2023-04-23T01:59:21;69;59;
50321;PMS5003;36227;53.366;-1.426;2023-04-23T02:01:47;63;59;
50321;PMS5003;36227;53.366;-1.426;2023-04-23T02:04:13;71;67;
50321;PMS5003;36227;53.366;-1.426;2023-04-23T02:06:38;64;58;
50321;PMS5003;36227;53.366;-1.426;2023-04-23T02:09:04;63;57;
50321;PMS5003;36227;53.366;-1.426;2023-04-23T02:11:29;69;65;
50321;PMS5003;36227;53.366;-1.426;2023-04-23T02:13:54;64;57;
50321;PMS5003;36227;53.366;-1.426;2023-04-23T02:16:20;68;58;
50321;PMS5003;36227;53.366;-1.426;2023-04-23T02:18:46;63;57;
50321;PMS5003;36227;53.366;-1.426;2023-04-23T02:21:11;59;57;
50321;PMS5003;36227;53.366;-1.426;2023-04-23T02:23:36;59;55;
50321;PMS5003;36227;53.366;-1.426;2023-04-23T02:26:02;67;61;
50321;PMS5003;36227;53.366;-1.426;2023-04-23T02:28:27;56;51;
50321;PMS5003;36227;53.366;-1.426;2023-04-23T02:30:53;47;44;
50321;PMS5003;36227;53.366;-1.426;2023-04-23T02:33:18;54;48;
50321;PMS5003;36227;53.366;-1.426;2023-04-23T02:35:44;50;49;
50321;PMS5003;36227;53.366;-1.426;2023-04-23T02:38:09;53;52;
50321;PMS5003;36227;53.366;-1.426;2023-04-23T02:40:34;52;46;
50321;PMS5003;36227;53.366;-1.426;2023-04-23T02:43:00;51;46;
50321;PMS5003;36227;53.366;-1.426;2023-04-23T02:45:25;57;54;
50321;PMS5003;36227;53.366;-1.426;2023-04-23T02:47:51;58;52;
50321;PMS5003;36227;53.366;-1.426;2023-04-23T02:50:16;58;48;
50321;PMS5003;36227;53.366;-1.426;2023-04-23T02:52:41;52;51;
50321;PMS5003;36227;53.366;-1.426;2023-04-23T02:55:07;61;57;
50321;PMS5003;36227;53.366;-1.426;2023-04-23T02:57:32;58;53;
50321;PMS5003;36227;53.366;-1.426;2023-04-23T02:59:58;62;58;
50321;PMS5003;36227;53.366;-1.426;2023-04-23T03:02:24;63;59;
50321;PMS5003;36227;53.366;-1.426;2023-04-23T03:04:50;59;55;
50321;PMS5003;36227;53.366;-1.426;2023-04-23T03:07:15;68;61;
50321;PMS5003;36227;53.366;-1.426;2023-04-23T03:09:40;62;59;
50321;PMS5003;36227;53.366;-1.426;2023-04-23T03:12:05;74;67;
50321;PMS5003;36227;53.366;-1.426;2023-04-23T03:14:31;73;67;
50321;PMS5003;36227;53.366;-1.426;2023-04-23T03:16:56;73;64;
50321;PMS5003;36227;53.366;-1.426;2023-04-23T03:19:22;74;62;
50321;PMS5003;36227;53.366;-1.426;2023-04-23T03:21:48;68;59;
50321;PMS5003;36227;53.366;-1.426;2023-04-23T03:24:13;73;63;
50321;PMS5003;36227;53.366;-1.426;2023-04-23T03:26:38;74;68;
50321;PMS5003;36227;53.366;-1.426;2023-04-23T03:29:04;67;61;
50321;PMS5003;36227;53.366;-1.426;2023-04-23T03:31:30;71;60;
50321;PMS5003;36227;53.366;-1.426;2023-04-23T03:33:56;75;71;
50321;PMS5003;36227;53.366;-1.426;2023-04-23T03:36:21;66;61;
50321;PMS5003;36227;53.366;-1.426;2023-04-23T03:38:47;68;61;
50321;PMS5003;36227;53.366;-1.426;2023-04-23T03:41:12;68;64;
50321;PMS5003;36227;53.366;-1.426;2023-04-23T03:43:38;74;67;
50321;PMS5003;36227;53.366;-1.426;2023-04-23T03:46:03;71;63;
50321;PMS5003;36227;53.366;-1.426;2023-04-23T03:48:28;65;63;
50321;PMS5003;36227;53.366;-1.426;2023-04-23T03:50:54;76;70;
50321;PMS5003;36227;53.366;-1.426;2023-04-23T03:53:20;73;66;
50321;PMS5003;36227;53.366;-1.426;2023-04-23T03:55:45;61;61;
50321;PMS5003;36227;53.366;-1.426;2023-04-23T03:58:11;71;63;
50321;PMS5003;36227;53.366;-1.426;2023-04-23T04:00:37;67;61;
50321;PMS5003;36227;53.366;-1.426;2023-04-23T04:03:02;70;64;
50321;PMS5003;36227;53.366;-1.426;2023-04-23T04:05:27;69;62;
50321;PMS5003;36227;53.366;-1.426;2023-04-23T04:07:53;77;74;
50321;PMS5003;36227;53.366;-1.426;2023-04-23T04:10:18;69;63;
50321;PMS5003;36227;53.366;-1.426;2023-04-23T04:12:44;72;67;
50321;PMS5003;36227;53.366;-1.426;2023-04-23T04:15:10;71;64;
50321;PMS5003;36227;53.366;-1.426;2023-04-23T04:17:35;70;65;
50321;PMS5003;36227;53.366;-1.426;2023-04-23T04:20:00;75;64;
50321;PMS5003;36227;53.366;-1.426;2023-04-23T04:22:26;67;65;
50321;PMS5003;36227;53.366;-1.426;2023-04-23T04:24:51;78;67;
50321;PMS5003;36227;53.366;-1.426;2023-04-23T04:27:17;75;66;
50321;PMS5003;36227;53.366;-1.426;2023-04-23T04:29:42;70;64;
50321;PMS5003;36227;53.366;-1.426;2023-04-23T04:32:07;73;67;
50321;PMS5003;36227;53.366;-1.426;2023-04-23T04:34:33;77;70;
50321;PMS5003;36227;53.366;-1.426;2023-04-23T04:36:58;80;73;
50321;PMS5003;36227;53.366;-1.426;2023-04-23T04:39:23;73;66;
50321;PMS5003;36227;53.366;-1.426;2023-04-23T04:41:49;78;65;
50321;PMS5003;36227;53.366;-1.426;2023-04-23T04:44:14;74;66;
50321;PMS5003;36227;53.366;-1.426;2023-04-23T04:46:40;74;68;
50321;PMS5003;36227;53.366;-1.426;2023-04-23T04:49:06;75;67;
50321;PMS5003;36227;53.366;-1.426;2023-04-23T04:51:30;67;62;
50321;PMS5003;36227;53.366;-1.426;2023-04-23T04:53:55;63;62;
50321;PMS5003;36227;53.366;-1.426;2023-04-23T04:56:21;75;65;
50321;PMS5003;36227;53.366;-1.426;2023-04-23T04:58:47;77;67;
50321;PMS5003;36227;53.366;-1.426;2023-04-23T05:01:12;69;63;
50321;PMS5003;36227;53.366;-1.426;2023-04-23T05:03:38;77;66;
50321;PMS5003;36227;53.366;-1.426;2023-04-23T05:06:03;81;69;
50321;PMS5003;36227;53.366;-1.426;2023-04-23T05:08:29;76;65;
50321;PMS5003;36227;53.366;-1.426;2023-04-23T05:10:54;70;61;
50321;PMS5003;36227;53.366;-1.426;2023-04-23T05:13:20;86;80;
50321;PMS5003;36227;53.366;-1.426;2023-04-23T05:15:46;73;64;
50321;PMS5003;36227;53.366;-1.426;2023-04-23T05:18:11;85;75;
50321;PMS5003;36227;53.366;-1.426;2023-04-23T05:20:37;81;71;
50321;PMS5003;36227;53.366;-1.426;2023-04-23T05:23:02;80;74;
50321;PMS5003;36227;53.366;-1.426;2023-04-23T05:25:27;84;72;
50321;PMS5003;36227;53.366;-1.426;2023-04-23T05:27:53;74;68;
50321;PMS5003;36227;53.366;-1.426;2023-04-23T05:30:19;91;78;
50321;PMS5003;36227;53.366;-1.426;2023-04-23T05:32:44;104;92;
50321;PMS5003;36227;53.366;-1.426;2023-04-23T05:35:09;84;78;
50321;PMS5003;36227;53.366;-1.426;2023-04-23T05:37:35;95;84;
50321;PMS5003;36227;53.366;-1.426;2023-04-23T05:40:00;89;86;
50321;PMS5003;36227;53.366;-1.426;2023-04-23T05:42:26;98;92;
50321;PMS5003;36227;53.366;-1.426;2023-04-23T05:44:51;96;87;
50321;PMS5003;36227;53.366;-1.426;2023-04-23T05:47:17;96;90;
50321;PMS5003;36227;53.366;-1.426;2023-04-23T05:49:42;110;92;
50321;PMS5003;36227;53.366;-1.426;2023-04-23T05:52:07;92;84;
50321;PMS5003;36227;53.366;-1.426;2023-04-23T05:54:33;84;81;
50321;PMS5003;36227;53.366;-1.426;2023-04-23T05:56:58;89;81;
50321;PMS5003;36227;53.366;-1.426;2023-04-23T05:59:25;88;81;
50321;PMS5003;36227;53.366;-1.426;2023-04-23T06:01:49;83;72;
50321;PMS5003;36227;53.366;-1.426;2023-04-23T06:04:15;79;73;
50321;PMS5003;36227;53.366;-1.426;2023-04-23T06:06:41;80;75;
50321;PMS5003;36227;53.366;-1.426;2023-04-23T06:09:05;95;83;
50321;PMS5003;36227;53.366;-1.426;2023-04-23T06:11:31;97;86;
50321;PMS5003;36227;53.366;-1.426;2023-04-23T06:13:56;93;87;
50321;PMS5003;36227;53.366;-1.426;2023-04-23T06:16:21;95;87;
50321;PMS5003;36227;53.366;-1.426;2023-04-23T06:18:46;94;85;
50321;PMS5003;36227;53.366;-1.426;2023-04-23T06:21:11;85;80;
50321;PMS5003;36227;53.366;-1.426;2023-04-23T06:23:37;87;78;
50321;PMS5003;36227;53.366;-1.426;2023-04-23T06:26:02;78;73;
50321;PMS5003;36227;53.366;-1.426;2023-04-23T06:28:27;78;72;
50321;PMS5003;36227;53.366;-1.426;2023-04-23T06:30:53;79;73;
50321;PMS5003;36227;53.366;-1.426;2023-04-23T06:33:19;84;80;
50321;PMS5003;36227;53.366;-1.426;2023-04-23T06:35:44;80;75;
50321;PMS5003;36227;53.366;-1.426;2023-04-23T06:38:10;76;64;
50321;PMS5003;36227;53.366;-1.426;2023-04-23T06:40:35;72;65;
50321;PMS5003;36227;53.366;-1.426;2023-04-23T06:43:01;72;70;
50321;PMS5003;36227;53.366;-1.426;2023-04-23T06:45:26;75;71;
50321;PMS5003;36227;53.366;-1.426;2023-04-23T06:47:51;85;68;
50321;PMS5003;36227;53.366;-1.426;2023-04-23T06:50:17;66;63;
50321;PMS5003;36227;53.366;-1.426;2023-04-23T06:52:42;76;71;
50321;PMS5003;36227;53.366;-1.426;2023-04-23T06:55:08;87;78;
50321;PMS5003;36227;53.366;-1.426;2023-04-23T06:57:33;83;76;
50321;PMS5003;36227;53.366;-1.426;2023-04-23T06:59:59;84;71;
50321;PMS5003;36227;53.366;-1.426;2023-04-23T07:02:25;83;71;
50321;PMS5003;36227;53.366;-1.426;2023-04-23T07:04:51;78;73;
50321;PMS5003;36227;53.366;-1.426;2023-04-23T07:07:16;78;75;
50321;PMS5003;36227;53.366;-1.426;2023-04-23T07:09:42;86;78;
50321;PMS5003;36227;53.366;-1.426;2023-04-23T07:12:06;84;83;
50321;PMS5003;36227;53.366;-1.426;2023-04-23T07:14:32;75;68;
50321;PMS5003;36227;53.366;-1.426;2023-04-23T07:16:57;76;69;
50321;PMS5003;36227;53.366;-1.426;2023-04-23T07:19:22;73;63;
50321;PMS5003;36227;53.366;-1.426;2023-04-23T07:21:53;68;62;
50321;PMS5003;36227;53.366;-1.426;2023-04-23T07:24:14;72;66;
50321;PMS5003;36227;53.366;-1.426;2023-04-23T07:26:39;63;59;
50321;PMS5003;36227;53.366;-1.426;2023-04-23T07:29:04;72;64;
50321;PMS5003;36227;53.366;-1.426;2023-04-23T07:31:30;81;72;
50321;PMS5003;36227;53.366;-1.426;2023-04-23T07:33:55;72;66;
50321;PMS5003;36227;53.366;-1.426;2023-04-23T07:36:21;67;65;
50321;PMS5003;36227;53.366;-1.426;2023-04-23T07:38:46;69;60;
50321;PMS5003;36227;53.366;-1.426;2023-04-23T07:41:12;69;63;
50321;PMS5003;36227;53.366;-1.426;2023-04-23T07:43:38;61;56;
50321;PMS5003;36227;53.366;-1.426;2023-04-23T07:46:03;66;59;
50321;PMS5003;36227;53.366;-1.426;2023-04-23T07:48:28;63;59;
50321;PMS5003;36227;53.366;-1.426;2023-04-23T07:50:53;59;52;
50321;PMS5003;36227;53.366;-1.426;2023-04-23T07:53:18;62;57;
50321;PMS5003;36227;53.366;-1.426;2023-04-23T07:55:44;50;49;
50321;PMS5003;36227;53.366;-1.426;2023-04-23T07:58:08;57;48;
50321;PMS5003;36227;53.366;-1.426;2023-04-23T08:00:34;48;46;
50321;PMS5003;36227;53.366;-1.426;2023-04-23T08:02:59;56;49;
50321;PMS5003;36227;53.366;-1.426;2023-04-23T08:05:24;55;53;
50321;PMS5003;36227;53.366;-1.426;2023-04-23T08:07:49;55;49;
50321;PMS5003;36227;53.366;-1.426;2023-04-23T08:10:15;54;48;
50321;PMS5003;36227;53.366;-1.426;2023-04-23T08:12:40;52;46;
50321;PMS5003;36227;53.366;-1.426;2023-04-23T08:15:07;52;48;
50321;PMS5003;36227;53.366;-1.426;2023-04-23T08:17:32;53;48;
50321;PMS5003;36227;53.366;-1.426;2023-04-23T08:19:58;57;53;
50321;PMS5003;36227;53.366;-1.426;2023-04-23T08:22:23;49;44;
50321;PMS5003;36227;53.366;-1.426;2023-04-23T08:24:48;59;54;
50321;PMS5003;36227;53.366;-1.426;2023-04-23T08:27:13;50;47;
50321;PMS5003;36227;53.366;-1.426;2023-04-23T08:29:39;50;43;
50321;PMS5003;36227;53.366;-1.426;2023-04-23T08:32:04;48;45;
50321;PMS5003;36227;53.366;-1.426;2023-04-23T08:34:30;52;51;
50321;PMS5003;36227;53.366;-1.426;2023-04-23T08:36:55;47;43;
50321;PMS5003;36227;53.366;-1.426;2023-04-23T08:39:20;53;47;
50321;PMS5003;36227;53.366;-1.426;2023-04-23T08:41:46;55;53;
50321;PMS5003;36227;53.366;-1.426;2023-04-23T08:44:12;47;45;
50321;PMS5003;36227;53.366;-1.426;2023-04-23T08:46:36;52;50;
50321;PMS5003;36227;53.366;-1.426;2023-04-23T08:49:01;51;48;
50321;PMS5003;36227;53.366;-1.426;2023-04-23T08:51:28;50;47;
50321;PMS5003;36227;53.366;-1.426;2023-04-23T08:53:55;53;47;
50321;PMS5003;36227;53.366;-1.426;2023-04-23T08:56:18;51;44;
50321;PMS5003;36227;53.366;-1.426;2023-04-23T08:58:44;50;48;
50321;PMS5003;36227;53.366;-1.426;2023-04-23T09:01:09;50;47;
50321;PMS5003;36227;53.366;-1.426;2023-04-23T09:03:35;47;43;
50321;PMS5003;36227;53.366;-1.426;2023-04-23T09:06:00;47;46;
50321;PMS5003;36227;53.366;-1.426;2023-04-23T09:08:26;55;48;
50321;PMS5003;36227;53.366;-1.426;2023-04-23T09:10:51;56;52;
50321;PMS5003;36227;53.366;-1.426;2023-04-23T09:13:16;59;51;
50321;PMS5003;36227;53.366;-1.426;2023-04-23T09:15:41;59;52;
50321;PMS5003;36227;53.366;-1.426;2023-04-23T09:18:07;53;48;
50321;PMS5003;36227;53.366;-1.426;2023-04-23T09:20:33;52;48;
50321;PMS5003;36227;53.366;-1.426;2023-04-23T09:22:59;52;47;
50321;PMS5003;36227;53.366;-1.426;2023-04-23T09:25:24;54;53;
50321;PMS5003;36227;53.366;-1.426;2023-04-23T09:27:50;54;50;
50321;PMS5003;36227;53.366;-1.426;2023-04-23T09:30:15;57;51;
50321;PMS5003;36227;53.366;-1.426;2023-04-23T09:32:40;59;55;
50321;PMS5003;36227;53.366;-1.426;2023-04-23T09:35:06;54;49;
50321;PMS5003;36227;53.366;-1.426;2023-04-23T09:37:31;59;54;
50321;PMS5003;36227;53.366;-1.426;2023-04-23T09:39:58;58;55;
50321;PMS5003;36227;53.366;-1.426;2023-04-23T09:42:22;63;56;
50321;PMS5003;36227;53.366;-1.426;2023-04-23T09:44:48;56;50;
50321;PMS5003;36227;53.366;-1.426;2023-04-23T09:47:13;55;51;
50321;PMS5003;36227;53.366;-1.426;2023-04-23T09:49:46;59;55;
50321;PMS5003;36227;53.366;-1.426;2023-04-23T09:52:04;61;58;
50321;PMS5003;36227;53.366;-1.426;2023-04-23T09:54:29;63;58;
50321;PMS5003;36227;53.366;-1.426;2023-04-23T09:56:55;57;52;
50321;PMS5003;36227;53.366;-1.426;2023-04-23T09:59:21;50;49;
50321;PMS5003;36227;53.366;-1.426;2023-04-23T10:01:46;52;51;
50321;PMS5003;36227;53.366;-1.426;2023-04-23T10:04:12;51;48;
50321;PMS5003;36227;53.366;-1.426;2023-04-23T10:06:37;51;45;
50321;PMS5003;36227;53.366;-1.426;2023-04-23T10:09:03;58;55;
50321;PMS5003;36227;53.366;-1.426;2023-04-23T10:11:29;57;53;
50321;PMS5003;36227;53.366;-1.426;2023-04-23T10:13:53;54;53;
50321;PMS5003;36227;53.366;-1.426;2023-04-23T10:16:20;55;52;
50321;PMS5003;36227;53.366;-1.426;2023-04-23T10:18:44;57;51;
50321;PMS5003;36227;53.366;-1.426;2023-04-23T10:21:10;55;48;
50321;PMS5003;36227;53.366;-1.426;2023-04-23T10:23:36;50;47;
50321;PMS5003;36227;53.366;-1.426;2023-04-23T10:26:01;55;50;
50321;PMS5003;36227;53.366;-1.426;2023-04-23T10:28:26;53;50;
50321;PMS5003;36227;53.366;-1.426;2023-04-23T10:30:51;59;52;
50321;PMS5003;36227;53.366;-1.426;2023-04-23T10:33:17;53;47;
50321;PMS5003;36227;53.366;-1.426;2023-04-23T10:35:42;50;46;
50321;PMS5003;36227;53.366;-1.426;2023-04-23T10:38:07;51;47;
50321;PMS5003;36227;53.366;-1.426;2023-04-23T10:40:33;53;50;
50321;PMS5003;36227;53.366;-1.426;2023-04-23T10:42:59;56;50;
50321;PMS5003;36227;53.366;-1.426;2023-04-23T10:45:25;45;44;
50321;PMS5003;36227;53.366;-1.426;2023-04-23T10:47:51;59;51;
50321;PMS5003;36227;53.366;-1.426;2023-04-23T10:50:19;50;47;
50321;PMS5003;36227;53.366;-1.426;2023-04-23T10:52:42;60;51;
50321;PMS5003;36227;53.366;-1.426;2023-04-23T10:55:14;51;47;
50321;PMS5003;36227;53.366;-1.426;2023-04-23T10:57:31;54;51;
50321;PMS5003;36227;53.366;-1.426;2023-04-23T10:59:56;50;47;
50321;PMS5003;36227;53.366;-1.426;2023-04-23T11:02:22;48;42;
50321;PMS5003;36227;53.366;-1.426;2023-04-23T11:04:52;53;48;
50321;PMS5003;36227;53.366;-1.426;2023-04-23T11:07:12;47;44;
50321;PMS5003;36227;53.366;-1.426;2023-04-23T11:09:38;52;49;
50321;PMS5003;36227;53.366;-1.426;2023-04-23T11:12:05;45;41;
50321;PMS5003;36227;53.366;-1.426;2023-04-23T11:14:32;50;46;
50321;PMS5003;36227;53.366;-1.426;2023-04-23T11:16:55;45;41;
50321;PMS5003;36227;53.366;-1.426;2023-04-23T11:19:25;44;40;
50321;PMS5003;36227;53.366;-1.426;2023-04-23T11:24:11;42;39;
50321;PMS5003;36227;53.366;-1.426;2023-04-23T11:26:37;51;46;
50321;PMS5003;36227;53.366;-1.426;2023-04-23T11:29:03;48;42;
50321;PMS5003;36227;53.366;-1.426;2023-04-23T11:31:29;43;42;
50321;PMS5003;36227;53.366;-1.426;2023-04-23T11:33:54;47;42;
50321;PMS5003;36227;53.366;-1.426;2023-04-23T11:36:19;45;41;
50321;PMS5003;36227;53.366;-1.426;2023-04-23T11:38:44;42;39;
50321;PMS5003;36227;53.366;-1.426;2023-04-23T11:41:09;42;39;
50321;PMS5003;36227;53.366;-1.426;2023-04-23T11:43:35;51;46;
50321;PMS5003;36227;53.366;-1.426;2023-04-23T11:46:00;55;49;
50321;PMS5003;36227;53.366;-1.426;2023-04-23T11:48:26;40;38;
50321;PMS5003;36227;53.366;-1.426;2023-04-23T11:50:51;38;38;
50321;PMS5003;36227;53.366;-1.426;2023-04-23T11:53:17;39;36;
50321;PMS5003;36227;53.366;-1.426;2023-04-23T11:55:42;46;43;
50321;PMS5003;36227;53.366;-1.426;2023-04-23T11:58:08;47;45;
50321;PMS5003;36227;53.366;-1.426;2023-04-23T12:00:33;37;37;
50321;PMS5003;36227;53.366;-1.426;2023-04-23T12:02:59;45;40;
50321;PMS5003;36227;53.366;-1.426;2023-04-23T12:05:26;44;41;
50321;PMS5003;36227;53.366;-1.426;2023-04-23T12:07:49;41;37;
50321;PMS5003;36227;53.366;-1.426;2023-04-23T12:10:16;41;36;
50321;PMS5003;36227;53.366;-1.426;2023-04-23T12:12:40;40;36;
50321;PMS5003;36227;53.366;-1.426;2023-04-23T12:15:06;41;40;
50321;PMS5003;36227;53.366;-1.426;2023-04-23T12:17:31;45;37;
50321;PMS5003;36227;53.366;-1.426;2023-04-23T12:19:57;41;39;
50321;PMS5003;36227;53.366;-1.426;2023-04-23T12:22:25;39;38;
50321;PMS5003;36227;53.366;-1.426;2023-04-23T12:24:48;37;36;
50321;PMS5003;36227;53.366;-1.426;2023-04-23T12:27:13;35;32;
50321;PMS5003;36227;53.366;-1.426;2023-04-23T12:29:38;45;42;
50321;PMS5003;36227;53.366;-1.426;2023-04-23T12:32:04;40;39;
50321;PMS5003;36227;53.366;-1.426;2023-04-23T12:34:29;44;43;
50321;PMS5003;36227;53.366;-1.426;2023-04-23T12:36:55;43;38;
50321;PMS5003;36227;53.366;-1.426;2023-04-23T12:39:22;37;37;
50321;PMS5003;36227;53.366;-1.426;2023-04-23T12:41:45;45;39;
50321;PMS5003;36227;53.366;-1.426;2023-04-23T12:44:11;40;38;
50321;PMS5003;36227;53.366;-1.426;2023-04-23T12:46:36;40;37;
50321;PMS5003;36227;53.366;-1.426;2023-04-23T12:49:01;39;35;
50321;PMS5003;36227;53.366;-1.426;2023-04-23T12:51:28;39;38;
50321;PMS5003;36227;53.366;-1.426;2023-04-23T12:53:53;36;35;
50321;PMS5003;36227;53.366;-1.426;2023-04-23T12:56:18;40;38;
50321;PMS5003;36227;53.366;-1.426;2023-04-23T12:58:43;34;31;
50321;PMS5003;36227;53.366;-1.426;2023-04-23T13:01:09;27;25;
50321;PMS5003;36227;53.366;-1.426;2023-04-23T13:03:34;33;32;
50321;PMS5003;36227;53.366;-1.426;2023-04-23T13:05:59;31;29;
50321;PMS5003;36227;53.366;-1.426;2023-04-23T13:08:25;31;28;
50321;PMS5003;36227;53.366;-1.426;2023-04-23T13:10:50;33;31;
50321;PMS5003;36227;53.366;-1.426;2023-04-23T13:13:16;37;33;
50321;PMS5003;36227;53.366;-1.426;2023-04-23T13:15:41;31;30;
50321;PMS5003;36227;53.366;-1.426;2023-04-23T13:18:07;35;34;
50321;PMS5003;36227;53.366;-1.426;2023-04-23T13:20:33;34;30;
50321;PMS5003;36227;53.366;-1.426;2023-04-23T13:22:59;36;35;
50321;PMS5003;36227;53.366;-1.426;2023-04-23T13:25:24;32;29;
50321;PMS5003;36227;53.366;-1.426;2023-04-23T13:27:49;36;35;
50321;PMS5003;36227;53.366;-1.426;2023-04-23T13:30:15;30;28;
50321;PMS5003;36227;53.366;-1.426;2023-04-23T13:32:40;32;32;
50321;PMS5003;36227;53.366;-1.426;2023-04-23T13:35:06;31;31;
50321;PMS5003;36227;53.366;-1.426;2023-04-23T13:37:30;32;32;
50321;PMS5003;36227;53.366;-1.426;2023-04-23T13:39:56;42;38;
50321;PMS5003;36227;53.366;-1.426;2023-04-23T13:42:21;30;29;
50321;PMS5003;36227;53.366;-1.426;2023-04-23T13:44:47;38;32;
50321;PMS5003;36227;53.366;-1.426;2023-04-23T13:47:13;36;31;
50321;PMS5003;36227;53.366;-1.426;2023-04-23T13:49:38;32;30;
50321;PMS5003;36227;53.366;-1.426;2023-04-23T13:52:03;41;36;
50321;PMS5003;36227;53.366;-1.426;2023-04-23T13:54:29;37;31;
50321;PMS5003;36227;53.366;-1.426;2023-04-23T13:56:54;38;32;
50321;PMS5003;36227;53.366;-1.426;2023-04-23T13:59:20;33;29;
50321;PMS5003;36227;53.366;-1.426;2023-04-23T14:01:45;38;36;
50321;PMS5003;36227;53.366;-1.426;2023-04-23T14:04:11;37;36;
50321;PMS5003;36227;53.366;-1.426;2023-04-23T14:06:36;33;32;
50321;PMS5003;36227;53.366;-1.426;2023-04-23T14:09:02;32;29;
50321;PMS5003;36227;53.366;-1.426;2023-04-23T14:11:27;40;38;
50321;PMS5003;36227;53.366;-1.426;2023-04-23T14:13:53;42;35;
50321;PMS5003;36227;53.366;-1.426;2023-04-23T14:16:18;40;36;
50321;PMS5003;36227;53.366;-1.426;2023-04-23T14:18:43;44;39;
50321;PMS5003;36227;53.366;-1.426;2023-04-23T14:21:08;36;32;
50321;PMS5003;36227;53.366;-1.426;2023-04-23T14:26:02;35;30;
50321;PMS5003;36227;53.366;-1.426;2023-04-23T14:28:27;38;37;
50321;PMS5003;36227;53.366;-1.426;2023-04-23T14:30:51;42;37;
50321;PMS5003;36227;53.366;-1.426;2023-04-23T14:33:16;40;35;
50321;PMS5003;36227;53.366;-1.426;2023-04-23T14:35:41;35;33;
50321;PMS5003;36227;53.366;-1.426;2023-04-23T14:38:07;33;33;
50321;PMS5003;36227;53.366;-1.426;2023-04-23T14:40:32;34;33;
50321;PMS5003;36227;53.366;-1.426;2023-04-23T14:42:57;33;31;
50321;PMS5003;36227;53.366;-1.426;2023-04-23T14:45:23;29;28;
50321;PMS5003;36227;53.366;-1.426;2023-04-23T14:47:48;34;31;
50321;PMS5003;36227;53.366;-1.426;2023-04-23T14:50:14;32;30;
50321;PMS5003;36227;53.366;-1.426;2023-04-23T14:52:40;32;30;
50321;PMS5003;36227;53.366;-1.426;2023-04-23T14:55:05;30;29;
50321;PMS5003;36227;53.366;-1.426;2023-04-23T14:57:30;30;29;
50321;PMS5003;36227;53.366;-1.426;2023-04-23T14:59:56;30;27;
50321;PMS5003;36227;53.366;-1.426;2023-04-23T15:02:22;28;26;
50321;PMS5003;36227;53.366;-1.426;2023-04-23T15:04:47;23;22;
50321;PMS5003;36227;53.366;-1.426;2023-04-23T15:07:13;30;28;
50321;PMS5003;36227;53.366;-1.426;2023-04-23T15:09:38;30;28;
50321;PMS5003;36227;53.366;-1.426;2023-04-23T15:12:04;32;28;
50321;PMS5003;36227;53.366;-1.426;2023-04-23T15:14:30;27;24;
50321;PMS5003;36227;53.366;-1.426;2023-04-23T15:16:55;32;27;
50321;PMS5003;36227;53.366;-1.426;2023-04-23T15:19:20;32;27;
50321;PMS5003;36227;53.366;-1.426;2023-04-23T15:21:45;27;25;
50321;PMS5003;36227;53.366;-1.426;2023-04-23T15:24:10;26;23;
50321;PMS5003;36227;53.366;-1.426;2023-04-23T15:26:36;24;23;
50321;PMS5003;36227;53.366;-1.426;2023-04-23T15:29:01;24;24;
50321;PMS5003;36227;53.366;-1.426;2023-04-23T15:31:27;27;24;
50321;PMS5003;36227;53.366;-1.426;2023-04-23T15:33:52;31;30;
50321;PMS5003;36227;53.366;-1.426;2023-04-23T15:36:18;36;33;
50321;PMS5003;36227;53.366;-1.426;2023-04-23T15:38:43;33;30;
50321;PMS5003;36227;53.366;-1.426;2023-04-23T15:41:09;25;24;
50321;PMS5003;36227;53.366;-1.426;2023-04-23T15:43:33;33;29;
50321;PMS5003;36227;53.366;-1.426;2023-04-23T15:45:59;31;26;
50321;PMS5003;36227;53.366;-1.426;2023-04-23T15:48:24;31;27;
50321;PMS5003;36227;53.366;-1.426;2023-04-23T15:50:50;26;24;
50321;PMS5003;36227;53.366;-1.426;2023-04-23T15:53:16;19;19;